sensor_id;sensor_type;location;lat;lon;timestamp;P1;durP1;ratioP1;P2;durP2;ratioP2
57395;SDS011;43222;52.912;6.940;2024-02-15T00:00:04;40.15;;;23.00;;
57395;SDS011;43222;52.912;6.940;2024-02-15T00:02:30;39.58;;;22.05;;
57395;SDS011;43222;52.912;6.940;2024-02-15T00:04:56;41.60;;;22.10;;
57395;SDS011;43222;52.912;6.940;2024-02-15T00:07:22;39.40;;;22.00;;
57395;SDS011;43222;52.912;6.940;2024-02-15T00:09:48;43.20;;;22.30;;
57395;SDS011;43222;52.912;6.940;2024-02-15T00:12:14;34.63;;;22.02;;
57395;SDS011;43222;52.912;6.940;2024-02-15T00:14:40;42.83;;;24.17;;
57395;SDS011;43222;52.912;6.940;2024-02-15T00:17:07;40.35;;;23.00;;
57395;SDS011;43222;52.912;6.940;2024-02-15T00:19:33;38.75;;;24.15;;
57395;SDS011;43222;52.912;6.940;2024-02-15T00:22:00;40.75;;;22.35;;
57395;SDS011;43222;52.912;6.940;2024-02-15T00:24:26;41.13;;;22.52;;
57395;SDS011;43222;52.912;6.940;2024-02-15T00:26:52;39.05;;;21.73;;
57395;SDS011;43222;52.912;6.940;2024-02-15T00:29:19;37.42;;;22.45;;
57395;SDS011;43222;52.912;6.940;2024-02-15T00:31:45;38.83;;;21.38;;
57395;SDS011;43222;52.912;6.940;2024-02-15T00:34:12;37.50;;;21.67;;
57395;SDS011;43222;52.912;6.940;2024-02-15T00:36:38;39.53;;;21.35;;
57395;SDS011;43222;52.912;6.940;2024-02-15T00:39:07;37.17;;;20.35;;
57395;SDS011;43222;52.912;6.940;2024-02-15T00:41:33;41.55;;;21.40;;
57395;SDS011;43222;52.912;6.940;2024-02-15T00:43:59;39.78;;;21.45;;
57395;SDS011;43222;52.912;6.940;2024-02-15T00:46:26;37.00;;;19.65;;
57395;SDS011;43222;52.912;6.940;2024-02-15T00:48:54;35.30;;;19.20;;
57395;SDS011;43222;52.912;6.940;2024-02-15T00:51:20;32.80;;;18.02;;
57395;SDS011;43222;52.912;6.940;2024-02-15T00:53:46;33.00;;;18.38;;
57395;SDS011;43222;52.912;6.940;2024-02-15T00:56:12;34.60;;;20.10;;
57395;SDS011;43222;52.912;6.940;2024-02-15T00:58:38;37.00;;;20.38;;
57395;SDS011;43222;52.912;6.940;2024-02-15T01:01:04;36.20;;;19.40;;
57395;SDS011;43222;52.912;6.940;2024-02-15T01:03:30;28.33;;;17.98;;
57395;SDS011;43222;52.912;6.940;2024-02-15T01:05:56;31.10;;;17.40;;
57395;SDS011;43222;52.912;6.940;2024-02-15T01:08:22;32.38;;;16.73;;
57395;SDS011;43222;52.912;6.940;2024-02-15T01:10:49;34.58;;;17.05;;
57395;SDS011;43222;52.912;6.940;2024-02-15T01:13:15;27.15;;;16.10;;
57395;SDS011;43222;52.912;6.940;2024-02-15T01:15:41;30.70;;;16.23;;
57395;SDS011;43222;52.912;6.940;2024-02-15T01:18:08;29.63;;;16.98;;
57395;SDS011;43222;52.912;6.940;2024-02-15T01:20:34;32.13;;;17.52;;
57395;SDS011;43222;52.912;6.940;2024-02-15T01:23:03;27.23;;;16.30;;
57395;SDS011;43222;52.912;6.940;2024-02-15T01:25:32;29.17;;;16.70;;
57395;SDS011;43222;52.912;6.940;2024-02-15T01:27:58;30.75;;;17.10;;
57395;SDS011;43222;52.912;6.940;2024-02-15T01:30:26;29.85;;;17.30;;
57395;SDS011;43222;52.912;6.940;2024-02-15T01:32:54;30.30;;;17.13;;
57395;SDS011;43222;52.912;6.940;2024-02-15T01:35:20;30.20;;;16.80;;
57395;SDS011;43222;52.912;6.940;2024-02-15T01:37:46;31.38;;;17.50;;
57395;SDS011;43222;52.912;6.940;2024-02-15T01:40:12;30.15;;;17.35;;
57395;SDS011;43222;52.912;6.940;2024-02-15T01:42:38;34.70;;;18.25;;
57395;SDS011;43222;52.912;6.940;2024-02-15T01:45:05;35.72;;;17.92;;
57395;SDS011;43222;52.912;6.940;2024-02-15T01:47:31;35.00;;;18.58;;
57395;SDS011;43222;52.912;6.940;2024-02-15T01:49:57;41.63;;;19.40;;
57395;SDS011;43222;52.912;6.940;2024-02-15T01:52:23;34.78;;;19.23;;
57395;SDS011;43222;52.912;6.940;2024-02-15T01:54:51;46.58;;;19.98;;
57395;SDS011;43222;52.912;6.940;2024-02-15T01:57:19;39.00;;;21.20;;
57395;SDS011;43222;52.912;6.940;2024-02-15T01:59:46;47.00;;;21.13;;
57395;SDS011;43222;52.912;6.940;2024-02-15T02:02:12;44.70;;;21.58;;
57395;SDS011;43222;52.912;6.940;2024-02-15T02:04:40;43.63;;;20.45;;
57395;SDS011;43222;52.912;6.940;2024-02-15T02:07:07;51.00;;;23.02;;
57395;SDS011;43222;52.912;6.940;2024-02-15T02:09:34;44.25;;;21.60;;
57395;SDS011;43222;52.912;6.940;2024-02-15T02:12:00;36.47;;;19.77;;
57395;SDS011;43222;52.912;6.940;2024-02-15T02:14:26;50.47;;;21.85;;
57395;SDS011;43222;52.912;6.940;2024-02-15T02:16:52;37.67;;;20.08;;
57395;SDS011;43222;52.912;6.940;2024-02-15T02:27:18;43.00;;;20.42;;
57395;SDS011;43222;52.912;6.940;2024-02-15T02:29:45;40.97;;;19.10;;
57395;SDS011;43222;52.912;6.940;2024-02-15T02:32:11;42.92;;;19.50;;
57395;SDS011;43222;52.912;6.940;2024-02-15T02:34:40;44.47;;;19.52;;
57395;SDS011;43222;52.912;6.940;2024-02-15T02:37:06;39.80;;;19.50;;
57395;SDS011;43222;52.912;6.940;2024-02-15T02:39:33;43.20;;;19.38;;
57395;SDS011;43222;52.912;6.940;2024-02-15T02:42:00;40.47;;;18.90;;
57395;SDS011;43222;52.912;6.940;2024-02-15T02:44:28;40.95;;;18.63;;
57395;SDS011;43222;52.912;6.940;2024-02-15T02:46:57;39.58;;;18.38;;
57395;SDS011;43222;52.912;6.940;2024-02-15T02:49:23;39.28;;;19.00;;
57395;SDS011;43222;52.912;6.940;2024-02-15T02:51:49;36.58;;;18.02;;
57395;SDS011;43222;52.912;6.940;2024-02-15T02:54:15;34.03;;;17.25;;
57395;SDS011;43222;52.912;6.940;2024-02-15T02:56:42;39.70;;;17.15;;
57395;SDS011;43222;52.912;6.940;2024-02-15T02:59:10;39.05;;;16.35;;
57395;SDS011;43222;52.912;6.940;2024-02-15T03:01:41;37.42;;;16.77;;
57395;SDS011;43222;52.912;6.940;2024-02-15T03:04:07;35.47;;;16.67;;
57395;SDS011;43222;52.912;6.940;2024-02-15T03:06:34;37.40;;;16.25;;
57395;SDS011;43222;52.912;6.940;2024-02-15T03:09:00;35.67;;;15.98;;
57395;SDS011;43222;52.912;6.940;2024-02-15T03:11:35;31.98;;;15.77;;
57395;SDS011;43222;52.912;6.940;2024-02-15T03:14:01;33.88;;;15.50;;
57395;SDS011;43222;52.912;6.940;2024-02-15T03:16:30;36.53;;;16.88;;
57395;SDS011;43222;52.912;6.940;2024-02-15T03:18:56;38.55;;;17.63;;
57395;SDS011;43222;52.912;6.940;2024-02-15T03:21:22;39.47;;;16.95;;
57395;SDS011;43222;52.912;6.940;2024-02-15T03:23:50;38.10;;;16.63;;
57395;SDS011;43222;52.912;6.940;2024-02-15T03:26:20;37.95;;;17.27;;
57395;SDS011;43222;52.912;6.940;2024-02-15T03:28:47;34.83;;;17.37;;
57395;SDS011;43222;52.912;6.940;2024-02-15T03:31:16;40.92;;;18.38;;
57395;SDS011;43222;52.912;6.940;2024-02-15T03:33:43;39.65;;;17.85;;
57395;SDS011;43222;52.912;6.940;2024-02-15T03:36:09;29.80;;;15.73;;
57395;SDS011;43222;52.912;6.940;2024-02-15T03:38:36;35.17;;;19.55;;
57395;SDS011;43222;52.912;6.940;2024-02-15T03:41:02;33.47;;;18.90;;
57395;SDS011;43222;52.912;6.940;2024-02-15T03:43:30;37.83;;;20.25;;
57395;SDS011;43222;52.912;6.940;2024-02-15T03:45:59;40.03;;;21.55;;
57395;SDS011;43222;52.912;6.940;2024-02-15T03:48:25;41.45;;;22.10;;
57395;SDS011;43222;52.912;6.940;2024-02-15T03:50:52;40.13;;;22.42;;
57395;SDS011;43222;52.912;6.940;2024-02-15T03:53:18;44.72;;;21.70;;
57395;SDS011;43222;52.912;6.940;2024-02-15T03:55:44;37.25;;;21.10;;
57395;SDS011;43222;52.912;6.940;2024-02-15T03:58:21;41.88;;;21.75;;
57395;SDS011;43222;52.912;6.940;2024-02-15T04:00:48;39.38;;;23.63;;
57395;SDS011;43222;52.912;6.940;2024-02-15T04:03:14;43.33;;;24.15;;
57395;SDS011;43222;52.912;6.940;2024-02-15T04:05:40;42.45;;;23.48;;
57395;SDS011;43222;52.912;6.940;2024-02-15T04:08:06;47.20;;;25.60;;
57395;SDS011;43222;52.912;6.940;2024-02-15T04:10:35;43.72;;;26.92;;
57395;SDS011;43222;52.912;6.940;2024-02-15T04:13:01;45.30;;;26.20;;
57395;SDS011;43222;52.912;6.940;2024-02-15T04:15:27;44.08;;;26.17;;
57395;SDS011;43222;52.912;6.940;2024-02-15T04:17:54;44.50;;;24.95;;
57395;SDS011;43222;52.912;6.940;2024-02-15T04:20:21;49.00;;;26.98;;
57395;SDS011;43222;52.912;6.940;2024-02-15T04:22:49;44.80;;;26.27;;
57395;SDS011;43222;52.912;6.940;2024-02-15T04:25:15;42.80;;;24.92;;
57395;SDS011;43222;52.912;6.940;2024-02-15T04:27:47;41.08;;;24.90;;
57395;SDS011;43222;52.912;6.940;2024-02-15T04:30:14;44.20;;;26.05;;
57395;SDS011;43222;52.912;6.940;2024-02-15T04:32:48;40.40;;;24.27;;
57395;SDS011;43222;52.912;6.940;2024-02-15T04:35:17;45.15;;;26.27;;
57395;SDS011;43222;52.912;6.940;2024-02-15T04:37:44;46.58;;;26.38;;
57395;SDS011;43222;52.912;6.940;2024-02-15T04:40:12;43.67;;;24.70;;
57395;SDS011;43222;52.912;6.940;2024-02-15T04:42:39;45.08;;;26.20;;
57395;SDS011;43222;52.912;6.940;2024-02-15T04:45:06;44.88;;;25.60;;
57395;SDS011;43222;52.912;6.940;2024-02-15T04:47:33;47.17;;;26.50;;
57395;SDS011;43222;52.912;6.940;2024-02-15T04:50:00;42.03;;;25.38;;
57395;SDS011;43222;52.912;6.940;2024-02-15T04:52:27;46.00;;;25.73;;
57395;SDS011;43222;52.912;6.940;2024-02-15T04:54:57;45.13;;;26.15;;
57395;SDS011;43222;52.912;6.940;2024-02-15T04:57:24;43.85;;;26.30;;
57395;SDS011;43222;52.912;6.940;2024-02-15T04:59:56;49.15;;;27.90;;
57395;SDS011;43222;52.912;6.940;2024-02-15T05:02:24;44.63;;;27.92;;
57395;SDS011;43222;52.912;6.940;2024-02-15T05:04:50;44.97;;;27.05;;
57395;SDS011;43222;52.912;6.940;2024-02-15T05:07:22;46.38;;;27.52;;
57395;SDS011;43222;52.912;6.940;2024-02-15T05:09:48;43.97;;;26.50;;
57395;SDS011;43222;52.912;6.940;2024-02-15T05:12:24;45.40;;;27.08;;
57395;SDS011;43222;52.912;6.940;2024-02-15T05:14:50;47.50;;;27.50;;
57395;SDS011;43222;52.912;6.940;2024-02-15T05:17:17;47.97;;;27.27;;
57395;SDS011;43222;52.912;6.940;2024-02-15T05:19:46;48.30;;;29.45;;
57395;SDS011;43222;52.912;6.940;2024-02-15T05:22:13;48.20;;;28.38;;
57395;SDS011;43222;52.912;6.940;2024-02-15T05:24:40;46.38;;;28.45;;
57395;SDS011;43222;52.912;6.940;2024-02-15T05:27:06;47.45;;;29.08;;
57395;SDS011;43222;52.912;6.940;2024-02-15T05:29:35;49.25;;;29.20;;
57395;SDS011;43222;52.912;6.940;2024-02-15T05:32:04;48.65;;;28.48;;
57395;SDS011;43222;52.912;6.940;2024-02-15T05:34:34;47.33;;;29.73;;
57395;SDS011;43222;52.912;6.940;2024-02-15T05:37:04;48.03;;;31.45;;
57395;SDS011;43222;52.912;6.940;2024-02-15T05:39:34;50.22;;;31.02;;
57395;SDS011;43222;52.912;6.940;2024-02-15T05:42:03;47.10;;;29.98;;
57395;SDS011;43222;52.912;6.940;2024-02-15T05:44:30;47.90;;;30.50;;
57395;SDS011;43222;52.912;6.940;2024-02-15T05:46:58;46.60;;;29.13;;
57395;SDS011;43222;52.912;6.940;2024-02-15T05:49:25;44.42;;;31.00;;
57395;SDS011;43222;52.912;6.940;2024-02-15T05:51:51;46.75;;;30.38;;
57395;SDS011;43222;52.912;6.940;2024-02-15T05:54:19;48.53;;;30.88;;
57395;SDS011;43222;52.912;6.940;2024-02-15T05:56:47;50.20;;;31.45;;
57395;SDS011;43222;52.912;6.940;2024-02-15T05:59:17;43.75;;;29.33;;
57395;SDS011;43222;52.912;6.940;2024-02-15T06:01:45;44.88;;;30.23;;
57395;SDS011;43222;52.912;6.940;2024-02-15T06:04:14;43.35;;;29.25;;
57395;SDS011;43222;52.912;6.940;2024-02-15T06:06:40;45.83;;;29.75;;
57395;SDS011;43222;52.912;6.940;2024-02-15T06:09:07;45.85;;;29.50;;
57395;SDS011;43222;52.912;6.940;2024-02-15T06:11:34;41.28;;;28.42;;
57395;SDS011;43222;52.912;6.940;2024-02-15T06:14:02;44.22;;;28.38;;
57395;SDS011;43222;52.912;6.940;2024-02-15T06:16:30;46.25;;;27.88;;
57395;SDS011;43222;52.912;6.940;2024-02-15T06:18:56;41.60;;;27.75;;
57395;SDS011;43222;52.912;6.940;2024-02-15T06:21:23;40.67;;;28.27;;
57395;SDS011;43222;52.912;6.940;2024-02-15T06:23:49;43.97;;;28.75;;
57395;SDS011;43222;52.912;6.940;2024-02-15T06:26:16;48.42;;;27.38;;
57395;SDS011;43222;52.912;6.940;2024-02-15T06:28:42;42.45;;;26.98;;
57395;SDS011;43222;52.912;6.940;2024-02-15T06:31:27;42.08;;;26.63;;
57395;SDS011;43222;52.912;6.940;2024-02-15T06:34:11;40.60;;;26.33;;
57395;SDS011;43222;52.912;6.940;2024-02-15T06:36:56;42.83;;;26.92;;
57395;SDS011;43222;52.912;6.940;2024-02-15T06:39:41;40.38;;;25.63;;
57395;SDS011;43222;52.912;6.940;2024-02-15T06:44:36;43.70;;;25.55;;
57395;SDS011;43222;52.912;6.940;2024-02-15T06:47:05;38.70;;;23.35;;
57395;SDS011;43222;52.912;6.940;2024-02-15T06:49:34;39.13;;;24.42;;
57395;SDS011;43222;52.912;6.940;2024-02-15T06:52:02;36.25;;;22.20;;
57395;SDS011;43222;52.912;6.940;2024-02-15T06:54:29;39.30;;;23.95;;
57395;SDS011;43222;52.912;6.940;2024-02-15T06:56:55;32.95;;;22.50;;
57395;SDS011;43222;52.912;6.940;2024-02-15T06:59:21;32.17;;;22.38;;
57395;SDS011;43222;52.912;6.940;2024-02-15T07:01:53;40.13;;;22.95;;
57395;SDS011;43222;52.912;6.940;2024-02-15T07:04:20;33.75;;;21.63;;
57395;SDS011;43222;52.912;6.940;2024-02-15T07:06:46;38.08;;;22.17;;
57395;SDS011;43222;52.912;6.940;2024-02-15T07:09:23;39.47;;;21.55;;
57395;SDS011;43222;52.912;6.940;2024-02-15T07:11:57;33.13;;;21.20;;
57395;SDS011;43222;52.912;6.940;2024-02-15T07:14:24;31.50;;;19.80;;
57395;SDS011;43222;52.912;6.940;2024-02-15T07:16:52;32.17;;;20.08;;
57395;SDS011;43222;52.912;6.940;2024-02-15T07:19:21;37.20;;;21.27;;
57395;SDS011;43222;52.912;6.940;2024-02-15T07:21:48;31.05;;;19.88;;
57395;SDS011;43222;52.912;6.940;2024-02-15T07:24:20;34.92;;;20.73;;
57395;SDS011;43222;52.912;6.940;2024-02-15T07:26:46;36.15;;;21.38;;
57395;SDS011;43222;52.912;6.940;2024-02-15T07:29:14;31.65;;;19.33;;
57395;SDS011;43222;52.912;6.940;2024-02-15T07:31:41;34.90;;;21.17;;
57395;SDS011;43222;52.912;6.940;2024-02-15T07:34:10;31.83;;;19.83;;
57395;SDS011;43222;52.912;6.940;2024-02-15T07:36:36;30.73;;;20.33;;
57395;SDS011;43222;52.912;6.940;2024-02-15T07:39:04;32.10;;;19.58;;
57395;SDS011;43222;52.912;6.940;2024-02-15T07:41:30;30.67;;;19.20;;
57395;SDS011;43222;52.912;6.940;2024-02-15T07:43:58;34.15;;;19.42;;
57395;SDS011;43222;52.912;6.940;2024-02-15T07:46:26;33.38;;;18.52;;
57395;SDS011;43222;52.912;6.940;2024-02-15T07:48:52;32.28;;;19.10;;
57395;SDS011;43222;52.912;6.940;2024-02-15T07:51:19;33.95;;;18.90;;
57395;SDS011;43222;52.912;6.940;2024-02-15T07:53:51;35.40;;;18.80;;
57395;SDS011;43222;52.912;6.940;2024-02-15T07:56:17;30.20;;;18.35;;
57395;SDS011;43222;52.912;6.940;2024-02-15T07:58:44;30.52;;;18.05;;
57395;SDS011;43222;52.912;6.940;2024-02-15T08:01:17;32.25;;;18.83;;
57395;SDS011;43222;52.912;6.940;2024-02-15T08:03:45;32.58;;;19.13;;
57395;SDS011;43222;52.912;6.940;2024-02-15T08:06:12;27.00;;;18.50;;
57395;SDS011;43222;52.912;6.940;2024-02-15T08:08:40;29.80;;;18.40;;
57395;SDS011;43222;52.912;6.940;2024-02-15T08:11:06;30.40;;;18.90;;
57395;SDS011;43222;52.912;6.940;2024-02-15T08:13:46;32.13;;;18.85;;
57395;SDS011;43222;52.912;6.940;2024-02-15T08:16:18;30.23;;;18.77;;
57395;SDS011;43222;52.912;6.940;2024-02-15T08:18:44;33.15;;;17.77;;
57395;SDS011;43222;52.912;6.940;2024-02-15T08:21:11;33.67;;;18.77;;
57395;SDS011;43222;52.912;6.940;2024-02-15T08:23:37;28.92;;;17.98;;
57395;SDS011;43222;52.912;6.940;2024-02-15T08:26:03;29.38;;;18.58;;
57395;SDS011;43222;52.912;6.940;2024-02-15T08:28:30;29.02;;;18.02;;
57395;SDS011;43222;52.912;6.940;2024-02-15T08:30:56;27.88;;;18.27;;
57395;SDS011;43222;52.912;6.940;2024-02-15T08:33:22;35.47;;;18.40;;
57395;SDS011;43222;52.912;6.940;2024-02-15T08:35:48;32.90;;;17.95;;
57395;SDS011;43222;52.912;6.940;2024-02-15T08:38:15;28.13;;;16.88;;
57395;SDS011;43222;52.912;6.940;2024-02-15T08:40:42;28.00;;;17.63;;
57395;SDS011;43222;52.912;6.940;2024-02-15T08:43:10;26.20;;;16.50;;
57395;SDS011;43222;52.912;6.940;2024-02-15T08:45:37;31.08;;;17.20;;
57395;SDS011;43222;52.912;6.940;2024-02-15T08:48:03;28.13;;;16.67;;
57395;SDS011;43222;52.912;6.940;2024-02-15T08:50:29;31.38;;;17.05;;
57395;SDS011;43222;52.912;6.940;2024-02-15T08:52:56;26.52;;;16.77;;
57395;SDS011;43222;52.912;6.940;2024-02-15T08:55:22;32.17;;;16.65;;
57395;SDS011;43222;52.912;6.940;2024-02-15T08:57:52;33.90;;;16.25;;
57395;SDS011;43222;52.912;6.940;2024-02-15T09:00:19;29.83;;;16.05;;
57395;SDS011;43222;52.912;6.940;2024-02-15T09:02:45;31.45;;;16.98;;
57395;SDS011;43222;52.912;6.940;2024-02-15T09:05:15;31.67;;;16.15;;
57395;SDS011;43222;52.912;6.940;2024-02-15T09:07:42;24.03;;;16.20;;
57395;SDS011;43222;52.912;6.940;2024-02-15T09:10:09;41.85;;;17.50;;
57395;SDS011;43222;52.912;6.940;2024-02-15T09:12:39;32.28;;;17.40;;
57395;SDS011;43222;52.912;6.940;2024-02-15T09:15:08;35.78;;;16.10;;
57395;SDS011;43222;52.912;6.940;2024-02-15T09:17:36;35.53;;;17.00;;
57395;SDS011;43222;52.912;6.940;2024-02-15T09:20:06;37.85;;;16.70;;
57395;SDS011;43222;52.912;6.940;2024-02-15T09:22:51;36.85;;;16.65;;
57395;SDS011;43222;52.912;6.940;2024-02-15T09:25:19;38.25;;;15.88;;
57395;SDS011;43222;52.912;6.940;2024-02-15T09:27:48;31.02;;;15.57;;
57395;SDS011;43222;52.912;6.940;2024-02-15T09:30:15;29.85;;;16.15;;
57395;SDS011;43222;52.912;6.940;2024-02-15T09:32:41;33.92;;;16.05;;
57395;SDS011;43222;52.912;6.940;2024-02-15T09:35:11;58.00;;;15.88;;
57395;SDS011;43222;52.912;6.940;2024-02-15T09:37:38;43.95;;;14.68;;
57395;SDS011;43222;52.912;6.940;2024-02-15T09:40:11;28.80;;;14.75;;
57395;SDS011;43222;52.912;6.940;2024-02-15T09:42:38;37.88;;;14.68;;
57395;SDS011;43222;52.912;6.940;2024-02-15T09:45:05;36.35;;;14.40;;
57395;SDS011;43222;52.912;6.940;2024-02-15T09:47:35;28.17;;;13.13;;
57395;SDS011;43222;52.912;6.940;2024-02-15T09:50:02;23.70;;;13.35;;
57395;SDS011;43222;52.912;6.940;2024-02-15T09:52:31;27.70;;;13.70;;
57395;SDS011;43222;52.912;6.940;2024-02-15T09:55:00;35.28;;;13.65;;
57395;SDS011;43222;52.912;6.940;2024-02-15T09:57:28;20.35;;;11.93;;
57395;SDS011;43222;52.912;6.940;2024-02-15T09:59:57;32.38;;;12.85;;
57395;SDS011;43222;52.912;6.940;2024-02-15T10:02:24;38.50;;;12.75;;
57395;SDS011;43222;52.912;6.940;2024-02-15T10:04:52;20.27;;;11.63;;
57395;SDS011;43222;52.912;6.940;2024-02-15T10:07:18;63.92;;;13.65;;
57395;SDS011;43222;52.912;6.940;2024-02-15T10:09:44;33.72;;;12.30;;
57395;SDS011;43222;52.912;6.940;2024-02-15T10:12:10;33.65;;;12.07;;
57395;SDS011;43222;52.912;6.940;2024-02-15T10:14:37;117.35;;;14.80;;
57395;SDS011;43222;52.912;6.940;2024-02-15T10:17:10;28.30;;;10.95;;
57395;SDS011;43222;52.912;6.940;2024-02-15T10:19:48;32.75;;;11.65;;
57395;SDS011;43222;52.912;6.940;2024-02-15T10:22:28;20.48;;;10.50;;
57395;SDS011;43222;52.912;6.940;2024-02-15T10:25:13;16.13;;;10.88;;
57395;SDS011;43222;52.912;6.940;2024-02-15T10:27:40;20.50;;;10.25;;
57395;SDS011;43222;52.912;6.940;2024-02-15T10:30:16;17.38;;;9.85;;
57395;SDS011;43222;52.912;6.940;2024-02-15T10:32:43;18.73;;;8.80;;
57395;SDS011;43222;52.912;6.940;2024-02-15T10:35:09;18.77;;;9.23;;
57395;SDS011;43222;52.912;6.940;2024-02-15T10:37:40;15.82;;;8.75;;
57395;SDS011;43222;52.912;6.940;2024-02-15T10:40:10;15.13;;;9.25;;
57395;SDS011;43222;52.912;6.940;2024-02-15T10:42:39;21.70;;;9.18;;
57395;SDS011;43222;52.912;6.940;2024-02-15T10:45:11;12.30;;;8.63;;
57395;SDS011;43222;52.912;6.940;2024-02-15T10:47:39;15.52;;;8.65;;
57395;SDS011;43222;52.912;6.940;2024-02-15T10:50:06;14.73;;;8.63;;
57395;SDS011;43222;52.912;6.940;2024-02-15T10:52:32;11.35;;;8.07;;
57395;SDS011;43222;52.912;6.940;2024-02-15T10:55:04;10.18;;;7.53;;
57395;SDS011;43222;52.912;6.940;2024-02-15T10:57:34;11.88;;;8.00;;
57395;SDS011;43222;52.912;6.940;2024-02-15T11:00:02;12.55;;;7.70;;
57395;SDS011;43222;52.912;6.940;2024-02-15T11:02:37;10.77;;;6.85;;
57395;SDS011;43222;52.912;6.940;2024-02-15T11:05:08;11.25;;;6.13;;
57395;SDS011;43222;52.912;6.940;2024-02-15T11:07:35;10.05;;;6.57;;
57395;SDS011;43222;52.912;6.940;2024-02-15T11:10:02;9.63;;;6.50;;
57395;SDS011;43222;52.912;6.940;2024-02-15T11:12:36;11.80;;;6.35;;
57395;SDS011;43222;52.912;6.940;2024-02-15T11:15:03;9.25;;;6.15;;
57395;SDS011;43222;52.912;6.940;2024-02-15T11:22:39;7.00;;;4.93;;
57395;SDS011;43222;52.912;6.940;2024-02-15T11:25:07;7.63;;;5.28;;
57395;SDS011;43222;52.912;6.940;2024-02-15T11:27:34;7.32;;;4.90;;
57395;SDS011;43222;52.912;6.940;2024-02-15T11:30:02;8.10;;;5.25;;
57395;SDS011;43222;52.912;6.940;2024-02-15T11:35:06;6.63;;;4.43;;
57395;SDS011;43222;52.912;6.940;2024-02-15T11:40:23;8.25;;;4.32;;
57395;SDS011;43222;52.912;6.940;2024-02-15T11:42:57;5.85;;;4.10;;
57395;SDS011;43222;52.912;6.940;2024-02-15T11:45:28;7.40;;;4.35;;
57395;SDS011;43222;52.912;6.940;2024-02-15T11:48:10;5.72;;;3.85;;
57395;SDS011;43222;52.912;6.940;2024-02-15T11:50:36;6.50;;;4.22;;
57395;SDS011;43222;52.912;6.940;2024-02-15T11:53:04;6.10;;;4.03;;
57395;SDS011;43222;52.912;6.940;2024-02-15T11:55:31;7.10;;;4.20;;
57395;SDS011;43222;52.912;6.940;2024-02-15T11:57:58;6.00;;;3.65;;
57395;SDS011;43222;52.912;6.940;2024-02-15T12:00:42;5.82;;;3.72;;
57395;SDS011;43222;52.912;6.940;2024-02-15T12:03:27;6.18;;;3.95;;
57395;SDS011;43222;52.912;6.940;2024-02-15T12:06:12;5.57;;;4.03;;
57395;SDS011;43222;52.912;6.940;2024-02-15T12:09:01;6.55;;;3.95;;
57395;SDS011;43222;52.912;6.940;2024-02-15T12:11:46;6.13;;;3.95;;
57395;SDS011;43222;52.912;6.940;2024-02-15T12:14:31;6.03;;;4.28;;
57395;SDS011;43222;52.912;6.940;2024-02-15T12:17:15;6.45;;;4.13;;
57395;SDS011;43222;52.912;6.940;2024-02-15T12:20:01;5.43;;;3.83;;
57395;SDS011;43222;52.912;6.940;2024-02-15T12:25:02;5.40;;;3.50;;
57395;SDS011;43222;52.912;6.940;2024-02-15T12:27:43;7.10;;;3.53;;
57395;SDS011;43222;52.912;6.940;2024-02-15T12:30:12;5.78;;;3.58;;
57395;SDS011;43222;52.912;6.940;2024-02-15T12:32:39;6.70;;;3.65;;
57395;SDS011;43222;52.912;6.940;2024-02-15T12:35:14;6.22;;;3.65;;
57395;SDS011;43222;52.912;6.940;2024-02-15T12:37:48;5.85;;;3.63;;
57395;SDS011;43222;52.912;6.940;2024-02-15T12:40:19;6.95;;;3.80;;
57395;SDS011;43222;52.912;6.940;2024-02-15T12:42:47;8.15;;;4.20;;
57395;SDS011;43222;52.912;6.940;2024-02-15T12:45:17;8.02;;;4.32;;
57395;SDS011;43222;52.912;6.940;2024-02-15T12:47:50;8.18;;;4.28;;
57395;SDS011;43222;52.912;6.940;2024-02-15T12:50:17;7.72;;;4.43;;
57395;SDS011;43222;52.912;6.940;2024-02-15T12:52:45;7.93;;;4.70;;
57395;SDS011;43222;52.912;6.940;2024-02-15T12:55:15;7.53;;;4.00;;
57395;SDS011;43222;52.912;6.940;2024-02-15T12:57:42;8.63;;;4.20;;
57395;SDS011;43222;52.912;6.940;2024-02-15T13:00:13;7.43;;;4.57;;
57395;SDS011;43222;52.912;6.940;2024-02-15T13:02:46;7.32;;;4.20;;
57395;SDS011;43222;52.912;6.940;2024-02-15T13:05:14;7.13;;;4.40;;
57395;SDS011;43222;52.912;6.940;2024-02-15T13:07:41;8.52;;;4.65;;
57395;SDS011;43222;52.912;6.940;2024-02-15T13:10:07;8.38;;;4.47;;
57395;SDS011;43222;52.912;6.940;2024-02-15T13:12:34;8.90;;;4.93;;
57395;SDS011;43222;52.912;6.940;2024-02-15T13:15:04;6.97;;;4.53;;
57395;SDS011;43222;52.912;6.940;2024-02-15T13:17:32;7.32;;;4.55;;
57395;SDS011;43222;52.912;6.940;2024-02-15T13:20:01;9.73;;;4.90;;
57395;SDS011;43222;52.912;6.940;2024-02-15T13:22:36;8.35;;;5.50;;
57395;SDS011;43222;52.912;6.940;2024-02-15T13:25:04;8.48;;;4.55;;
57395;SDS011;43222;52.912;6.940;2024-02-15T13:27:32;7.60;;;4.80;;
57395;SDS011;43222;52.912;6.940;2024-02-15T13:29:58;9.20;;;5.20;;
57395;SDS011;43222;52.912;6.940;2024-02-15T13:32:25;10.85;;;5.68;;
57395;SDS011;43222;52.912;6.940;2024-02-15T13:34:51;10.38;;;5.50;;
57395;SDS011;43222;52.912;6.940;2024-02-15T13:37:21;10.18;;;5.70;;
57395;SDS011;43222;52.912;6.940;2024-02-15T13:39:51;9.50;;;6.07;;
57395;SDS011;43222;52.912;6.940;2024-02-15T13:42:17;10.38;;;6.20;;
57395;SDS011;43222;52.912;6.940;2024-02-15T13:44:44;12.20;;;6.47;;
57395;SDS011;43222;52.912;6.940;2024-02-15T13:47:12;11.13;;;6.90;;
57395;SDS011;43222;52.912;6.940;2024-02-15T13:49:38;13.23;;;6.95;;
57395;SDS011;43222;52.912;6.940;2024-02-15T13:52:05;13.02;;;7.18;;
57395;SDS011;43222;52.912;6.940;2024-02-15T13:54:31;11.07;;;6.72;;
57395;SDS011;43222;52.912;6.940;2024-02-15T13:57:01;12.25;;;6.93;;
57395;SDS011;43222;52.912;6.940;2024-02-15T13:59:28;14.70;;;7.65;;
57395;SDS011;43222;52.912;6.940;2024-02-15T14:01:57;14.27;;;6.70;;
57395;SDS011;43222;52.912;6.940;2024-02-15T14:04:23;12.88;;;7.13;;
57395;SDS011;43222;52.912;6.940;2024-02-15T14:06:49;14.18;;;6.82;;
57395;SDS011;43222;52.912;6.940;2024-02-15T14:09:15;15.43;;;7.47;;
57395;SDS011;43222;52.912;6.940;2024-02-15T14:11:42;10.73;;;7.25;;
57395;SDS011;43222;52.912;6.940;2024-02-15T14:14:08;15.20;;;7.90;;
57395;SDS011;43222;52.912;6.940;2024-02-15T14:16:35;15.55;;;8.15;;
57395;SDS011;43222;52.912;6.940;2024-02-15T14:19:01;13.30;;;7.68;;
57395;SDS011;43222;52.912;6.940;2024-02-15T14:21:29;12.55;;;7.25;;
57395;SDS011;43222;52.912;6.940;2024-02-15T14:23:58;16.50;;;8.85;;
57395;SDS011;43222;52.912;6.940;2024-02-15T14:26:24;15.43;;;8.13;;
57395;SDS011;43222;52.912;6.940;2024-02-15T14:28:52;15.32;;;8.20;;
57395;SDS011;43222;52.912;6.940;2024-02-15T14:31:18;12.95;;;8.38;;
57395;SDS011;43222;52.912;6.940;2024-02-15T14:34:02;14.88;;;8.10;;
57395;SDS011;43222;52.912;6.940;2024-02-15T14:36:29;17.77;;;8.43;;
57395;SDS011;43222;52.912;6.940;2024-02-15T14:38:55;13.02;;;8.30;;
57395;SDS011;43222;52.912;6.940;2024-02-15T14:41:21;14.10;;;8.00;;
57395;SDS011;43222;52.912;6.940;2024-02-15T14:43:48;15.85;;;8.27;;
57395;SDS011;43222;52.912;6.940;2024-02-15T14:46:15;16.52;;;9.13;;
57395;SDS011;43222;52.912;6.940;2024-02-15T14:48:41;17.00;;;9.23;;
57395;SDS011;43222;52.912;6.940;2024-02-15T14:51:08;14.52;;;9.23;;
57395;SDS011;43222;52.912;6.940;2024-02-15T14:53:35;16.30;;;9.20;;
57395;SDS011;43222;52.912;6.940;2024-02-15T14:56:01;15.20;;;8.95;;